Hayle, United Kingdom
Current Conditions -  °F | °C
As of 5:50 AM on Monday 26 Jan 2015 (Local Time) from EGDR Reporting Station
Drizzle Drizzle  
Wind Chill: 50°   Ceiling: 200
Heat Index: 50°   Visibility: 1.2mi
Dew Point: 50°   Wind: 10mph
Humidity: 100%   Direction: 250°WSW
Pressure: 30.27"   Gusts: NA
Location:  50.18°N, 5.42°W
Report Text: EGDR 260550Z 25009KT 2000 -DZ BKN002 BKN005 OVC008 10/10 Q1025 AMB
Loading
Personal Weather Stations






























Interactive Weather Map New forecast layout! Learn more

10-Day Weather Forecast

Advertisements
Track Severe Weather on mobile